Poquott, New York
Current Conditions -  °F | °C
As of 3:56 AM on Saturday 20 Dec 2014 (Local Time) from KISP Reporting Station
Overcast Overcast  
Wind Chill: 25°   Ceiling: 2500
Heat Index: 32°   Visibility: 10mi
Dew Point: 21°   Wind: 8mph
Humidity: 64%   Direction: 340°NNW
Pressure: 30.19"   Gusts: NA
Location:  40.9344°N, 73.1065°W
Report Text: KISP 200856Z AUTO 34007KT 10SM OVC025 00/M06 A3019 RMK AO2 SLP222 T00001061 53006
Loading
Personal Weather Stations






























Interactive Weather Map New forecast layout! Learn more

10-Day Weather Forecast

Advertisements
Track Severe Weather on mobile